George Allen — WDF9749 — position and weather

sailwx.info

Track history (hours):
 
Tides and Currents Weather Stations Pressure Air Temp Water Temp Dewpoint Dewpoint Depression Visibility Wind Speed Wind Dir Waves Ship Positions

George Allen

Owner: Blessey Enterprises, Inc., Harahan, LA. More information available from US FCC via Universal Licensing System and Coast Guard Vessel Documentation Center.

Last reported at 2017-Dec-13 15:03 UTC. Time now 2017-Dec-15 10:29 UTC.
Position N 29°50' W 091°57'.

Length 23 m; draft 3.5 m.

Type: Towing. MMSI: 367508440.

Date/timePositionNaut miles runAvg speedWind from/ knotsBaromVisibWave heightAir tempDewpointWater temp
2017-Dec-13 15:03N 29°50' W 091°57'0 5.2
2017-Dec-13 15:01N 29°50' W 091°57'3 5.5
2017-Dec-13 14:30N 29°50' W 092°00'3 5.5
2017-Dec-13 14:00N 29°49' W 092°03'3 5.5
2017-Dec-13 13:31N 29°48' W 092°06'3 5.6
2017-Dec-13 13:00N 29°47' W 092°09'3 5.3
2017-Dec-13 12:31N 29°47' W 092°12'2 4.3
2017-Dec-13 12:00N 29°48' W 092°15'2 4.3
2017-Dec-13 11:30N 29°49' W 092°17'2 3.6
2017-Dec-13 10:58N 29°50' W 092°19'2 4.8
2017-Dec-13 10:30N 29°51' W 092°21'32 4.9
2017-Dec-13 03:49N 29°56' W 092°58'2 5.0
2017-Dec-13 03:22N 29°56' W 093°01'2 4.9
2017-Dec-13 03:01N 29°56' W 093°03'2 4.9
2017-Dec-13 02:30N 29°56' W 093°06'2 4.8
2017-Dec-13 02:00N 29°56' W 093°08'2 4.5
2017-Dec-13 01:31N 29°57' W 093°11'2 4.9
2017-Dec-13 01:00N 29°59' W 093°12'2 4.6
2017-Dec-13 00:30N 30°01' W 093°14'2 4.5
2017-Dec-13 00:00N 30°03' W 093°16'2 4.2
2017-Dec-12 23:30N 30°05' W 093°17'1 2.7
2017-Dec-12 23:00N 30°05' W 093°18'1 1.6
2017-Dec-12 22:30N 30°06' W 093°18'0 0.0
2017-Dec-12 22:00N 30°06' W 093°18'0 0.0
2017-Dec-12 21:31N 30°06' W 093°18'0 0.0
2017-Dec-12 21:00N 30°06' W 093°18'0 0.0
2017-Dec-12 20:30N 30°06' W 093°18'0 0.0
2017-Dec-12 20:01N 30°06' W 093°18'0 0.0
2017-Dec-12 19:31N 30°06' W 093°18'0 0.0
2017-Dec-12 19:01N 30°06' W 093°18'0 0.0
2017-Dec-12 18:30N 30°06' W 093°18'0 0.0
2017-Dec-12 18:01N 30°06' W 093°18'0 0.0
2017-Dec-12 17:31N 30°06' W 093°18'0 0.0
2017-Dec-12 17:01N 30°06' W 093°18'0 0.0
2017-Dec-12 16:31N 30°06' W 093°18'0 0.0
2017-Dec-12 16:00N 30°06' W 093°18'0 0.0
2017-Dec-12 15:31N 30°06' W 093°18'1 1.4
2017-Dec-12 15:01N 30°06' W 093°19'3 5.2
2017-Dec-12 14:31N 30°04' W 093°21'3 5.3
2017-Dec-12 14:01N 30°04' W 093°24'3 5.5
2017-Dec-12 13:30N 30°04' W 093°27'3 5.5
2017-Dec-12 13:01N 30°04' W 093°30'3 5.3
2017-Dec-12 12:31N 30°04' W 093°33'3 5.3
2017-Dec-12 12:00N 30°04' W 093°37'74 4.0
2017-Dec-11 17:32N 29°31' W 094°53'1 7.4
2017-Dec-11 17:24N 29°32' W 094°54'3 7.3
2017-Dec-11 17:00N 29°34' W 094°56'3 7.0
2017-Dec-11 16:30N 29°37' W 094°58'4 7.4
2017-Dec-11 16:00N 29°41' W 094°59'5 6.5
2017-Dec-11 15:16N 29°44' W 095°03'3 6.6
2017-Dec-11 14:53N 29°46' W 095°05'0 0.3
2017-Dec-11 13:34N 29°46' W 095°05'0 0.4
2017-Dec-11 13:27N 29°46' W 095°05'1 1.8
2017-Dec-11 12:58N 29°46' W 095°04'3 5.6
2017-Dec-11 12:30N 29°44' W 095°02'3 6.4
2017-Dec-11 12:00N 29°42' W 094°59'1 2.4
2017-Dec-11 11:30N 29°41' W 094°58'2 3.6
2017-Dec-11 11:00N 29°40' W 094°56'0 0.8
2017-Dec-11 10:30N 29°40' W 094°56'0 0.0
2017-Dec-11 10:00N 29°40' W 094°56'0 0.0
2017-Dec-11 09:30N 29°40' W 094°56'0 0.0
2017-Dec-11 09:00N 29°40' W 094°56'0 0.0
2017-Dec-11 08:30N 29°40' W 094°56'0 0.0
2017-Dec-11 08:00N 29°40' W 094°56'0 0.0
2017-Dec-11 07:30N 29°40' W 094°56'0 0.0
2017-Dec-11 07:00N 29°40' W 094°56'0 0.0
2017-Dec-11 06:30N 29°40' W 094°56'0 0.0
2017-Dec-11 06:00N 29°40' W 094°56'0 0.0
2017-Dec-11 05:30N 29°40' W 094°56'0 0.0
2017-Dec-11 05:00N 29°40' W 094°56'0 0.0
2017-Dec-11 04:30N 29°40' W 094°56'0 0.0
2017-Dec-11 04:00N 29°40' W 094°56'0 0.0
2017-Dec-11 03:30N 29°40' W 094°56'0 0.0
2017-Dec-11 03:00N 29°40' W 094°56'0 0.0
2017-Dec-11 02:30N 29°40' W 094°56'0 0.0
2017-Dec-11 02:00N 29°40' W 094°56'0 0.0
2017-Dec-11 01:30N 29°40' W 094°56'0 0.0
2017-Dec-11 00:59N 29°40' W 094°56'0 0.0
2017-Dec-11 00:30N 29°40' W 094°56'0 0.0
2017-Dec-11 00:00N 29°40' W 094°56'0 0.0
2017-Dec-10 23:30N 29°40' W 094°56'0 0.0
2017-Dec-10 23:00N 29°40' W 094°56'0 0.0
2017-Dec-10 22:30N 29°40' W 094°56'0 0.0
2017-Dec-10 22:00N 29°40' W 094°56'0 0.0
2017-Dec-10 21:30N 29°40' W 094°56'0 0.0
2017-Dec-10 20:59N 29°40' W 094°56'0 0.0
2017-Dec-10 20:30N 29°40' W 094°56'0 0.0
2017-Dec-10 19:58N 29°40' W 094°56'0 0.0
2017-Dec-10 19:30N 29°40' W 094°56'0 0.0
2017-Dec-10 19:00N 29°40' W 094°56'0 0.0
2017-Dec-10 18:30N 29°40' W 094°56'0 0.0
2017-Dec-10 18:00N 29°40' W 094°56'0 0.0
2017-Dec-10 17:30N 29°40' W 094°56'0 0.0
2017-Dec-10 17:00N 29°40' W 094°56'0 0.0
2017-Dec-10 16:30N 29°40' W 094°56'0 0.0
2017-Dec-10 15:59N 29°40' W 094°56'0 0.0
2017-Dec-10 15:27N 29°40' W 094°56'0 0.0
2017-Dec-10 14:59N 29°40' W 094°56'0 0.0
2017-Dec-10 14:29N 29°40' W 094°56'0 0.0
2017-Dec-10 14:00N 29°40' W 094°56'0 0.0
2017-Dec-10 13:30N 29°40' W 094°56'0 0.0
2017-Dec-10 13:00N 29°40' W 094°56'0 0.0
2017-Dec-10 12:30N 29°40' W 094°56'0 0.0
2017-Dec-10 11:58N 29°40' W 094°56'0 0.0
2017-Dec-10 11:30N 29°40' W 094°56'0 0.0
2017-Dec-10 11:00N 29°40' W 094°56'0 0.0
2017-Dec-10 10:30N 29°40' W 094°56'0 0.0
2017-Dec-10 10:00N 29°40' W 094°56'0 0.0
2017-Dec-10 09:30N 29°40' W 094°56'0 0.0
2017-Dec-10 09:00N 29°40' W 094°56'0 0.0
2017-Dec-10 08:30N 29°40' W 094°56'0 0.0
2017-Dec-10 08:00N 29°40' W 094°56'0 0.0
2017-Dec-10 07:30N 29°40' W 094°56'0 0.0
2017-Dec-10 07:00N 29°40' W 094°56'0 0.0
2017-Dec-10 06:30N 29°40' W 094°56'0 0.0
2017-Dec-10 06:00N 29°40' W 094°56'0 0.0
2017-Dec-10 05:30N 29°40' W 094°56'0 0.0
2017-Dec-10 05:00N 29°40' W 094°56'0 0.0
2017-Dec-10 04:30N 29°40' W 094°56'0 0.0
2017-Dec-10 04:00N 29°40' W 094°56'0 0.0
2017-Dec-10 03:30N 29°40' W 094°56'0 0.0
2017-Dec-10 03:00N 29°40' W 094°56'0 0.0
2017-Dec-10 02:30N 29°40' W 094°56'0 0.0
2017-Dec-10 02:00N 29°40' W 094°56'0 0.0
2017-Dec-10 01:30N 29°40' W 094°56'0 0.0
2017-Dec-10 01:00N 29°40' W 094°56'0 0.0
2017-Dec-10 00:30N 29°40' W 094°56'0 0.0
2017-Dec-10 00:00N 29°40' W 094°56'0 0.0
2017-Dec-09 23:30N 29°40' W 094°56'0 0.0
2017-Dec-09 23:00N 29°40' W 094°56'0 0.0
2017-Dec-09 22:30N 29°40' W 094°56'0 0.0
2017-Dec-09 22:00N 29°40' W 094°56'0 0.0
2017-Dec-09 21:30N 29°40' W 094°56'0 0.0
2017-Dec-09 19:59N 29°40' W 094°56'0 0.0
2017-Dec-09 19:29N 29°40' W 094°56'0 0.0
2017-Dec-09 18:58N 29°40' W 094°56'0 0.0
2017-Dec-09 18:28N 29°40' W 094°56'0 0.0
2017-Dec-09 18:00N 29°40' W 094°56'0 0.0
2017-Dec-09 17:30N 29°40' W 094°56'0 0.0
2017-Dec-09 17:00N 29°40' W 094°56'0 0.0
2017-Dec-09 16:29N 29°40' W 094°56'0 0.0
2017-Dec-09 16:00N 29°40' W 094°56'0 0.0
2017-Dec-09 15:29N 29°40' W 094°56'0 0.0
2017-Dec-09 15:00N 29°40' W 094°56'0 0.0
2017-Dec-09 14:30N 29°40' W 094°56'0 0.0
2017-Dec-09 14:00N 29°40' W 094°56'0 0.0
2017-Dec-09 13:30N 29°40' W 094°56'0 0.0
2017-Dec-09 13:00N 29°40' W 094°56'0 0.0
2017-Dec-09 12:30N 29°40' W 094°56'0 0.0
2017-Dec-09 12:00N 29°40' W 094°56'1 2.4
2017-Dec-09 11:30N 29°41' W 094°57'2 4.9
2017-Dec-09 11:00N 29°42' W 094°60'3 6.7
2017-Dec-09 10:30N 29°44' W 095°03'3 6.4
2017-Dec-09 09:59N 29°47' W 095°05'1 0.4
2017-Dec-09 08:48N 29°47' W 095°05'0 1.5
2017-Dec-09 08:28N 29°47' W 095°04'1 1.7
2017-Dec-09 07:59N 29°47' W 095°05'0 0.1
2017-Dec-09 07:12N 29°47' W 095°05'1 2.4
2017-Dec-09 06:58N 29°46' W 095°05'2 4.6
2017-Dec-09 06:28N 29°44' W 095°07'1 1.5
2017-Dec-09 05:47N 29°44' W 095°08'0 0.0
2017-Dec-08 23:04N 29°44' W 095°08'0 0.1
2017-Dec-08 23:00N 29°44' W 095°08'0 0.0
2017-Dec-08 01:51N 29°44' W 095°08'1 2.6
2017-Dec-08 01:23N 29°45' W 095°06'2 5.0
2017-Dec-08 00:58N 29°46' W 095°05'  
Track history (hours):
 
Tides and Currents Weather Stations Pressure Air Temp Water Temp Dewpoint Dewpoint Depression Visibility Wind Speed Wind Dir Waves Ship Positions

George Allen

Owner: Blessey Enterprises, Inc., Harahan, LA. More information available from US FCC via Universal Licensing System and Coast Guard Vessel Documentation Center.

Last reported at 2017-Dec-13 15:03 UTC. Time now 2017-Dec-15 10:29 UTC.
Position N 29°50' W 091°57'.

Length 23 m; draft 3.5 m.

Type: Towing. MMSI: 367508440.

Date/timePositionNaut miles runAvg speedWind from/ knotsBaromVisibWave heightAir tempDewpointWater temp
2017-Dec-13 15:03N 29°50' W 091°57'0 5.2
2017-Dec-13 15:01N 29°50' W 091°57'3 5.5
2017-Dec-13 14:30N 29°50' W 092°00'3 5.5
2017-Dec-13 14:00N 29°49' W 092°03'3 5.5
2017-Dec-13 13:31N 29°48' W 092°06'3 5.6
2017-Dec-13 13:00N 29°47' W 092°09'3 5.3
2017-Dec-13 12:31N 29°47' W 092°12'2 4.3
2017-Dec-13 12:00N 29°48' W 092°15'2 4.3
2017-Dec-13 11:30N 29°49' W 092°17'2 3.6
2017-Dec-13 10:58N 29°50' W 092°19'2 4.8
2017-Dec-13 10:30N 29°51' W 092°21'32 4.9
2017-Dec-13 03:49N 29°56' W 092°58'2 5.0
2017-Dec-13 03:22N 29°56' W 093°01'2 4.9
2017-Dec-13 03:01N 29°56' W 093°03'2 4.9
2017-Dec-13 02:30N 29°56' W 093°06'2 4.8
2017-Dec-13 02:00N 29°56' W 093°08'2 4.5
2017-Dec-13 01:31N 29°57' W 093°11'2 4.9
2017-Dec-13 01:00N 29°59' W 093°12'2 4.6
2017-Dec-13 00:30N 30°01' W 093°14'2 4.5
2017-Dec-13 00:00N 30°03' W 093°16'2 4.2
2017-Dec-12 23:30N 30°05' W 093°17'1 2.7
2017-Dec-12 23:00N 30°05' W 093°18'1 1.6
2017-Dec-12 22:30N 30°06' W 093°18'0 0.0
2017-Dec-12 22:00N 30°06' W 093°18'0 0.0
2017-Dec-12 21:31N 30°06' W 093°18'0 0.0
2017-Dec-12 21:00N 30°06' W 093°18'0 0.0
2017-Dec-12 20:30N 30°06' W 093°18'0 0.0
2017-Dec-12 20:01N 30°06' W 093°18'0 0.0
2017-Dec-12 19:31N 30°06' W 093°18'0 0.0
2017-Dec-12 19:01N 30°06' W 093°18'0 0.0
2017-Dec-12 18:30N 30°06' W 093°18'0 0.0
2017-Dec-12 18:01N 30°06' W 093°18'0 0.0
2017-Dec-12 17:31N 30°06' W 093°18'0 0.0
2017-Dec-12 17:01N 30°06' W 093°18'0 0.0
2017-Dec-12 16:31N 30°06' W 093°18'0 0.0
2017-Dec-12 16:00N 30°06' W 093°18'0 0.0
2017-Dec-12 15:31N 30°06' W 093°18'1 1.4
2017-Dec-12 15:01N 30°06' W 093°19'3 5.2
2017-Dec-12 14:31N 30°04' W 093°21'3 5.3
2017-Dec-12 14:01N 30°04' W 093°24'3 5.5
2017-Dec-12 13:30N 30°04' W 093°27'3 5.5
2017-Dec-12 13:01N 30°04' W 093°30'3 5.3
2017-Dec-12 12:31N 30°04' W 093°33'3 5.3
2017-Dec-12 12:00N 30°04' W 093°37'74 4.0
2017-Dec-11 17:32N 29°31' W 094°53'1 7.4
2017-Dec-11 17:24N 29°32' W 094°54'3 7.3
2017-Dec-11 17:00N 29°34' W 094°56'3 7.0
2017-Dec-11 16:30N 29°37' W 094°58'4 7.4
2017-Dec-11 16:00N 29°41' W 094°59'5 6.5
2017-Dec-11 15:16N 29°44' W 095°03'3 6.6
2017-Dec-11 14:53N 29°46' W 095°05'0 0.3
2017-Dec-11 13:34N 29°46' W 095°05'0 0.4
2017-Dec-11 13:27N 29°46' W 095°05'1 1.8
2017-Dec-11 12:58N 29°46' W 095°04'3 5.6
2017-Dec-11 12:30N 29°44' W 095°02'3 6.4
2017-Dec-11 12:00N 29°42' W 094°59'1 2.4
2017-Dec-11 11:30N 29°41' W 094°58'2 3.6
2017-Dec-11 11:00N 29°40' W 094°56'0 0.8
2017-Dec-11 10:30N 29°40' W 094°56'0 0.0
2017-Dec-11 10:00N 29°40' W 094°56'0 0.0
2017-Dec-11 09:30N 29°40' W 094°56'0 0.0
2017-Dec-11 09:00N 29°40' W 094°56'0 0.0
2017-Dec-11 08:30N 29°40' W 094°56'0 0.0
2017-Dec-11 08:00N 29°40' W 094°56'0 0.0
2017-Dec-11 07:30N 29°40' W 094°56'0 0.0
2017-Dec-11 07:00N 29°40' W 094°56'0 0.0
2017-Dec-11 06:30N 29°40' W 094°56'0 0.0
2017-Dec-11 06:00N 29°40' W 094°56'0 0.0
2017-Dec-11 05:30N 29°40' W 094°56'0 0.0
2017-Dec-11 05:00N 29°40' W 094°56'0 0.0
2017-Dec-11 04:30N 29°40' W 094°56'0 0.0
2017-Dec-11 04:00N 29°40' W 094°56'0 0.0
2017-Dec-11 03:30N 29°40' W 094°56'0 0.0
2017-Dec-11 03:00N 29°40' W 094°56'0 0.0
2017-Dec-11 02:30N 29°40' W 094°56'0 0.0
2017-Dec-11 02:00N 29°40' W 094°56'0 0.0
2017-Dec-11 01:30N 29°40' W 094°56'0 0.0
2017-Dec-11 00:59N 29°40' W 094°56'0 0.0
2017-Dec-11 00:30N 29°40' W 094°56'0 0.0
2017-Dec-11 00:00N 29°40' W 094°56'0 0.0
2017-Dec-10 23:30N 29°40' W 094°56'0 0.0
2017-Dec-10 23:00N 29°40' W 094°56'0 0.0
2017-Dec-10 22:30N 29°40' W 094°56'0 0.0
2017-Dec-10 22:00N 29°40' W 094°56'0 0.0
2017-Dec-10 21:30N 29°40' W 094°56'0 0.0
2017-Dec-10 20:59N 29°40' W 094°56'0 0.0
2017-Dec-10 20:30N 29°40' W 094°56'0 0.0
2017-Dec-10 19:58N 29°40' W 094°56'0 0.0
2017-Dec-10 19:30N 29°40' W 094°56'0 0.0
2017-Dec-10 19:00N 29°40' W 094°56'0 0.0
2017-Dec-10 18:30N 29°40' W 094°56'0 0.0
2017-Dec-10 18:00N 29°40' W 094°56'0 0.0
2017-Dec-10 17:30N 29°40' W 094°56'0 0.0
2017-Dec-10 17:00N 29°40' W 094°56'0 0.0
2017-Dec-10 16:30N 29°40' W 094°56'0 0.0
2017-Dec-10 15:59N 29°40' W 094°56'0 0.0
2017-Dec-10 15:27N 29°40' W 094°56'0 0.0
2017-Dec-10 14:59N 29°40' W 094°56'0 0.0
2017-Dec-10 14:29N 29°40' W 094°56'0 0.0
2017-Dec-10 14:00N 29°40' W 094°56'0 0.0
2017-Dec-10 13:30N 29°40' W 094°56'0 0.0
2017-Dec-10 13:00N 29°40' W 094°56'0 0.0
2017-Dec-10 12:30N 29°40' W 094°56'0 0.0
2017-Dec-10 11:58N 29°40' W 094°56'0 0.0
2017-Dec-10 11:30N 29°40' W 094°56'0 0.0
2017-Dec-10 11:00N 29°40' W 094°56'0 0.0
2017-Dec-10 10:30N 29°40' W 094°56'0 0.0
2017-Dec-10 10:00N 29°40' W 094°56'0 0.0
2017-Dec-10 09:30N 29°40' W 094°56'0 0.0
2017-Dec-10 09:00N 29°40' W 094°56'0 0.0
2017-Dec-10 08:30N 29°40' W 094°56'0 0.0
2017-Dec-10 08:00N 29°40' W 094°56'0 0.0
2017-Dec-10 07:30N 29°40' W 094°56'0 0.0
2017-Dec-10 07:00N 29°40' W 094°56'0 0.0
2017-Dec-10 06:30N 29°40' W 094°56'0 0.0
2017-Dec-10 06:00N 29°40' W 094°56'0 0.0
2017-Dec-10 05:30N 29°40' W 094°56'0 0.0
2017-Dec-10 05:00N 29°40' W 094°56'0 0.0
2017-Dec-10 04:30N 29°40' W 094°56'0 0.0
2017-Dec-10 04:00N 29°40' W 094°56'0 0.0
2017-Dec-10 03:30N 29°40' W 094°56'0 0.0
2017-Dec-10 03:00N 29°40' W 094°56'0 0.0
2017-Dec-10 02:30N 29°40' W 094°56'0 0.0
2017-Dec-10 02:00N 29°40' W 094°56'0 0.0
2017-Dec-10 01:30N 29°40' W 094°56'0 0.0
2017-Dec-10 01:00N 29°40' W 094°56'0 0.0
2017-Dec-10 00:30N 29°40' W 094°56'0 0.0
2017-Dec-10 00:00N 29°40' W 094°56'0 0.0
2017-Dec-09 23:30N 29°40' W 094°56'0 0.0
2017-Dec-09 23:00N 29°40' W 094°56'0 0.0
2017-Dec-09 22:30N 29°40' W 094°56'0 0.0
2017-Dec-09 22:00N 29°40' W 094°56'0 0.0
2017-Dec-09 21:30N 29°40' W 094°56'0 0.0
2017-Dec-09 19:59N 29°40' W 094°56'0 0.0
2017-Dec-09 19:29N 29°40' W 094°56'0 0.0
2017-Dec-09 18:58N 29°40' W 094°56'0 0.0
2017-Dec-09 18:28N 29°40' W 094°56'0 0.0
2017-Dec-09 18:00N 29°40' W 094°56'0 0.0
2017-Dec-09 17:30N 29°40' W 094°56'0 0.0
2017-Dec-09 17:00N 29°40' W 094°56'0 0.0
2017-Dec-09 16:29N 29°40' W 094°56'0 0.0
2017-Dec-09 16:00N 29°40' W 094°56'0 0.0
2017-Dec-09 15:29N 29°40' W 094°56'0 0.0
2017-Dec-09 15:00N 29°40' W 094°56'0 0.0
2017-Dec-09 14:30N 29°40' W 094°56'0 0.0
2017-Dec-09 14:00N 29°40' W 094°56'0 0.0
2017-Dec-09 13:30N 29°40' W 094°56'0 0.0
2017-Dec-09 13:00N 29°40' W 094°56'0 0.0
2017-Dec-09 12:30N 29°40' W 094°56'0 0.0
2017-Dec-09 12:00N 29°40' W 094°56'1 2.4
2017-Dec-09 11:30N 29°41' W 094°57'2 4.9
2017-Dec-09 11:00N 29°42' W 094°60'3 6.7
2017-Dec-09 10:30N 29°44' W 095°03'3 6.4
2017-Dec-09 09:59N 29°47' W 095°05'1 0.4
2017-Dec-09 08:48N 29°47' W 095°05'0 1.5
2017-Dec-09 08:28N 29°47' W 095°04'1 1.7
2017-Dec-09 07:59N 29°47' W 095°05'0 0.1
2017-Dec-09 07:12N 29°47' W 095°05'1 2.4
2017-Dec-09 06:58N 29°46' W 095°05'2 4.6
2017-Dec-09 06:28N 29°44' W 095°07'1 1.5
2017-Dec-09 05:47N 29°44' W 095°08'0 0.0
2017-Dec-08 23:04N 29°44' W 095°08'0 0.1
2017-Dec-08 23:00N 29°44' W 095°08'0 0.0
2017-Dec-08 01:51N 29°44' W 095°08'1 2.6
2017-Dec-08 01:23N 29°45' W 095°06'2 5.0
2017-Dec-08 00:58N 29°46' W 095°05'  

Dump ship's entire track history